sensor_id;sensor_type;location;lat;lon;timestamp;pressure;altitude;pressure_sealevel;temperature;humidity
8705;BME280;4389;41.932;25.904;2023-02-23T00:01:12;100488.78;;;5.03;91.25
8705;BME280;4389;41.932;25.904;2023-02-23T00:03:40;100489.72;;;5.02;90.83
8705;BME280;4389;41.932;25.904;2023-02-23T00:06:07;100484.59;;;5.13;90.69
8705;BME280;4389;41.932;25.904;2023-02-23T00:08:35;100484.19;;;5.19;91.30
8705;BME280;4389;41.932;25.904;2023-02-23T00:11:03;100485.88;;;5.20;89.95
8705;BME280;4389;41.932;25.904;2023-02-23T00:13:31;100480.84;;;5.17;89.88
8705;BME280;4389;41.932;25.904;2023-02-23T00:16:03;100487.84;;;5.04;89.72
8705;BME280;4389;41.932;25.904;2023-02-23T00:18:30;100494.06;;;4.76;91.49
8705;BME280;4389;41.932;25.904;2023-02-23T00:21:07;100493.47;;;4.59;93.04
8705;BME280;4389;41.932;25.904;2023-02-23T00:23:34;100493.47;;;4.59;92.77
8705;BME280;4389;41.932;25.904;2023-02-23T00:26:03;100499.47;;;4.47;93.76
8705;BME280;4389;41.932;25.904;2023-02-23T00:28:30;100503.03;;;4.46;93.88
8705;BME280;4389;41.932;25.904;2023-02-23T00:30:56;100508.28;;;4.46;93.97
8705;BME280;4389;41.932;25.904;2023-02-23T00:33:23;100503.47;;;4.52;94.44
8705;BME280;4389;41.932;25.904;2023-02-23T00:35:50;100505.56;;;4.47;94.67
8705;BME280;4389;41.932;25.904;2023-02-23T00:38:21;100507.47;;;4.58;94.77
8705;BME280;4389;41.932;25.904;2023-02-23T00:40:48;100503.94;;;4.59;94.66
8705;BME280;4389;41.932;25.904;2023-02-23T00:43:15;100507.75;;;4.53;93.85
8705;BME280;4389;41.932;25.904;2023-02-23T00:45:44;100507.88;;;4.52;94.01
8705;BME280;4389;41.932;25.904;2023-02-23T00:48:11;100499.09;;;4.53;94.15
8705;BME280;4389;41.932;25.904;2023-02-23T00:50:38;100495.78;;;4.63;94.19
8705;BME280;4389;41.932;25.904;2023-02-23T00:53:06;100502.94;;;4.74;94.71
8705;BME280;4389;41.932;25.904;2023-02-23T00:55:34;100500.91;;;4.65;93.65
8705;BME280;4389;41.932;25.904;2023-02-23T00:58:01;100499.19;;;4.78;94.56
8705;BME280;4389;41.932;25.904;2023-02-23T01:00:28;100503.47;;;4.79;94.74
8705;BME280;4389;41.932;25.904;2023-02-23T01:02:56;100497.09;;;4.83;94.34
8705;BME280;4389;41.932;25.904;2023-02-23T01:05:23;100501.09;;;4.88;94.25
8705;BME280;4389;41.932;25.904;2023-02-23T01:07:50;100498.78;;;4.84;93.85
8705;BME280;4389;41.932;25.904;2023-02-23T01:10:17;100500.47;;;4.85;93.24
8705;BME280;4389;41.932;25.904;2023-02-23T01:12:50;100505.19;;;4.80;91.95
8705;BME280;4389;41.932;25.904;2023-02-23T01:15:19;100502.50;;;4.67;91.92
8705;BME280;4389;41.932;25.904;2023-02-23T01:17:46;100502.00;;;4.75;92.07
8705;BME280;4389;41.932;25.904;2023-02-23T01:20:15;100506.31;;;4.76;92.29
8705;BME280;4389;41.932;25.904;2023-02-23T01:22:44;100504.75;;;4.59;92.40
8705;BME280;4389;41.932;25.904;2023-02-23T01:25:11;100506.00;;;4.54;91.94
8705;BME280;4389;41.932;25.904;2023-02-23T01:27:39;100509.94;;;4.47;91.72
8705;BME280;4389;41.932;25.904;2023-02-23T01:30:08;100501.16;;;4.48;91.50
8705;BME280;4389;41.932;25.904;2023-02-23T01:32:36;100509.13;;;4.32;91.98
8705;BME280;4389;41.932;25.904;2023-02-23T01:35:04;100503.78;;;4.34;91.95
8705;BME280;4389;41.932;25.904;2023-02-23T01:37:33;100507.34;;;4.33;92.04
8705;BME280;4389;41.932;25.904;2023-02-23T01:40:01;100511.88;;;4.17;92.67
8705;BME280;4389;41.932;25.904;2023-02-23T01:42:38;100514.56;;;4.16;92.57
8705;BME280;4389;41.932;25.904;2023-02-23T01:45:27;100514.13;;;4.09;92.34
8705;BME280;4389;41.932;25.904;2023-02-23T01:47:58;100517.84;;;4.05;93.08
8705;BME280;4389;41.932;25.904;2023-02-23T01:50:29;100517.63;;;4.22;93.29
8705;BME280;4389;41.932;25.904;2023-02-23T01:52:58;100520.81;;;4.27;92.80
8705;BME280;4389;41.932;25.904;2023-02-23T01:55:26;100519.88;;;4.28;92.92
8705;BME280;4389;41.932;25.904;2023-02-23T01:58:00;100520.81;;;4.41;93.79
8705;BME280;4389;41.932;25.904;2023-02-23T02:00:30;100520.47;;;4.19;92.85
8705;BME280;4389;41.932;25.904;2023-02-23T02:03:04;100518.06;;;4.16;92.21
8705;BME280;4389;41.932;25.904;2023-02-23T02:05:34;100528.78;;;3.98;93.76
8705;BME280;4389;41.932;25.904;2023-02-23T02:08:05;100522.41;;;3.74;94.35
8705;BME280;4389;41.932;25.904;2023-02-23T02:10:35;100531.09;;;3.60;95.36
8705;BME280;4389;41.932;25.904;2023-02-23T02:13:09;100524.09;;;3.75;95.88
8705;BME280;4389;41.932;25.904;2023-02-23T02:15:53;100533.84;;;3.87;95.74
8705;BME280;4389;41.932;25.904;2023-02-23T02:18:29;100530.94;;;3.91;95.75
8705;BME280;4389;41.932;25.904;2023-02-23T02:21:23;100527.38;;;3.78;95.78
8705;BME280;4389;41.932;25.904;2023-02-23T02:24:41;100539.53;;;3.93;97.23
8705;BME280;4389;41.932;25.904;2023-02-23T02:27:23;100535.59;;;3.86;96.82
8705;BME280;4389;41.932;25.904;2023-02-23T02:33:25;100538.22;;;3.86;96.37
8705;BME280;4389;41.932;25.904;2023-02-23T02:36:21;100547.59;;;4.04;95.47
8705;BME280;4389;41.932;25.904;2023-02-23T02:39:00;100539.91;;;4.01;96.05
8705;BME280;4389;41.932;25.904;2023-02-23T02:41:35;100541.59;;;4.02;95.91
8705;BME280;4389;41.932;25.904;2023-02-23T02:44:13;100536.38;;;4.02;95.44
8705;BME280;4389;41.932;25.904;2023-02-23T02:46:45;100541.97;;;3.82;95.07
8705;BME280;4389;41.932;25.904;2023-02-23T02:49:16;100544.97;;;3.90;94.97
8705;BME280;4389;41.932;25.904;2023-02-23T02:51:51;100542.34;;;3.76;96.17
8705;BME280;4389;41.932;25.904;2023-02-23T02:54:25;100546.03;;;3.72;96.23
8705;BME280;4389;41.932;25.904;2023-02-23T02:56:57;100546.47;;;3.80;96.50
8705;BME280;4389;41.932;25.904;2023-02-23T02:59:25;100554.50;;;3.91;96.20
8705;BME280;4389;41.932;25.904;2023-02-23T03:02:15;100556.38;;;4.03;95.80
8705;BME280;4389;41.932;25.904;2023-02-23T03:05:00;100556.91;;;4.08;94.90
8705;BME280;4389;41.932;25.904;2023-02-23T03:07:52;100562.72;;;4.13;94.70
8705;BME280;4389;41.932;25.904;2023-02-23T03:10:45;100553.38;;;4.23;94.31
8705;BME280;4389;41.932;25.904;2023-02-23T03:13:39;100563.00;;;4.22;94.06
8705;BME280;4389;41.932;25.904;2023-02-23T03:16:35;100553.38;;;4.23;94.38
8705;BME280;4389;41.932;25.904;2023-02-23T03:19:23;100567.28;;;4.23;95.80
8705;BME280;4389;41.932;25.904;2023-02-23T03:22:17;100561.41;;;4.06;97.04
8705;BME280;4389;41.932;25.904;2023-02-23T03:25:08;100566.56;;;4.08;97.58
8705;BME280;4389;41.932;25.904;2023-02-23T03:27:58;100559.94;;;4.02;97.76
8705;BME280;4389;41.932;25.904;2023-02-23T03:30:56;100563.66;;;3.98;98.03
8705;BME280;4389;41.932;25.904;2023-02-23T03:33:57;100568.97;;;3.97;99.49
8705;BME280;4389;41.932;25.904;2023-02-23T03:36:48;100570.00;;;3.94;97.98
8705;BME280;4389;41.932;25.904;2023-02-23T03:39:36;100570.84;;;3.95;96.92
8705;BME280;4389;41.932;25.904;2023-02-23T03:42:27;100574.13;;;3.98;95.36
8705;BME280;4389;41.932;25.904;2023-02-23T03:45:18;100576.00;;;3.96;95.76
8705;BME280;4389;41.932;25.904;2023-02-23T03:48:05;100579.06;;;3.89;96.61
8705;BME280;4389;41.932;25.904;2023-02-23T03:50:53;100589.25;;;3.93;98.06
8705;BME280;4389;41.932;25.904;2023-02-23T03:53:42;100587.41;;;4.09;99.64
8705;BME280;4389;41.932;25.904;2023-02-23T03:56:32;100587.41;;;4.37;100.00
8705;BME280;4389;41.932;25.904;2023-02-23T03:59:22;100588.72;;;4.44;100.00
8705;BME280;4389;41.932;25.904;2023-02-23T04:02:10;100585.53;;;4.53;100.00
8705;BME280;4389;41.932;25.904;2023-02-23T04:05:00;100587.34;;;4.65;100.00
8705;BME280;4389;41.932;25.904;2023-02-23T04:07:46;100581.94;;;4.68;100.00
8705;BME280;4389;41.932;25.904;2023-02-23T04:10:34;100586.66;;;4.89;100.00
8705;BME280;4389;41.932;25.904;2023-02-23T04:13:26;100583.88;;;4.78;100.00
8705;BME280;4389;41.932;25.904;2023-02-23T04:15:56;100582.66;;;4.84;100.00
8705;BME280;4389;41.932;25.904;2023-02-23T04:18:26;100584.72;;;4.79;100.00
8705;BME280;4389;41.932;25.904;2023-02-23T04:20:53;100592.75;;;4.90;100.00
8705;BME280;4389;41.932;25.904;2023-02-23T04:23:21;100590.34;;;4.87;100.00
8705;BME280;4389;41.932;25.904;2023-02-23T04:25:48;100587.63;;;4.74;100.00
8705;BME280;4389;41.932;25.904;2023-02-23T04:28:15;100586.44;;;4.66;100.00
8705;BME280;4389;41.932;25.904;2023-02-23T04:30:42;100594.44;;;4.77;100.00
8705;BME280;4389;41.932;25.904;2023-02-23T04:33:09;100595.00;;;4.82;100.00
8705;BME280;4389;41.932;25.904;2023-02-23T04:35:37;100588.28;;;4.78;100.00
8705;BME280;4389;41.932;25.904;2023-02-23T04:38:04;100598.38;;;4.84;100.00
8705;BME280;4389;41.932;25.904;2023-02-23T04:40:32;100595.38;;;4.90;100.00
8705;BME280;4389;41.932;25.904;2023-02-23T04:42:59;100595.84;;;4.82;100.00
8705;BME280;4389;41.932;25.904;2023-02-23T04:45:26;100599.88;;;4.88;100.00
8705;BME280;4389;41.932;25.904;2023-02-23T04:47:53;100596.50;;;4.86;100.00
8705;BME280;4389;41.932;25.904;2023-02-23T04:50:19;100593.69;;;4.89;100.00
8705;BME280;4389;41.932;25.904;2023-02-23T04:52:48;100595.13;;;5.07;100.00
8705;BME280;4389;41.932;25.904;2023-02-23T04:55:20;100593.94;;;5.25;100.00
8705;BME280;4389;41.932;25.904;2023-02-23T04:57:47;100603.69;;;5.23;100.00
8705;BME280;4389;41.932;25.904;2023-02-23T05:00:15;100599.63;;;5.31;100.00
8705;BME280;4389;41.932;25.904;2023-02-23T05:02:42;100604.81;;;5.19;100.00
8705;BME280;4389;41.932;25.904;2023-02-23T05:05:09;100602.00;;;5.22;100.00
8705;BME280;4389;41.932;25.904;2023-02-23T05:07:37;100609.84;;;5.22;100.00
8705;BME280;4389;41.932;25.904;2023-02-23T05:10:08;100607.50;;;5.31;100.00
8705;BME280;4389;41.932;25.904;2023-02-23T05:12:35;100607.06;;;5.25;100.00
8705;BME280;4389;41.932;25.904;2023-02-23T05:15:02;100603.28;;;5.29;100.00
8705;BME280;4389;41.932;25.904;2023-02-23T05:17:29;100618.50;;;5.24;100.00
8705;BME280;4389;41.932;25.904;2023-02-23T05:19:56;100609.84;;;5.22;100.00
8705;BME280;4389;41.932;25.904;2023-02-23T05:22:23;100611.34;;;5.26;100.00
8705;BME280;4389;41.932;25.904;2023-02-23T05:24:49;100629.16;;;5.21;100.00
8705;BME280;4389;41.932;25.904;2023-02-23T05:27:18;100632.41;;;4.98;100.00
8705;BME280;4389;41.932;25.904;2023-02-23T05:29:44;100631.75;;;4.94;100.00
8705;BME280;4389;41.932;25.904;2023-02-23T05:32:11;100641.22;;;4.97;100.00
8705;BME280;4389;41.932;25.904;2023-02-23T05:34:38;100650.06;;;4.82;100.00
8705;BME280;4389;41.932;25.904;2023-02-23T05:37:05;100654.63;;;4.92;100.00
8705;BME280;4389;41.932;25.904;2023-02-23T05:39:32;100658.47;;;5.01;100.00
8705;BME280;4389;41.932;25.904;2023-02-23T05:41:59;100659.88;;;4.92;100.00
8705;BME280;4389;41.932;25.904;2023-02-23T05:44:27;100661.59;;;5.06;100.00
8705;BME280;4389;41.932;25.904;2023-02-23T05:46:54;100664.22;;;5.06;100.00
8705;BME280;4389;41.932;25.904;2023-02-23T05:49:21;100665.00;;;5.08;100.00
8705;BME280;4389;41.932;25.904;2023-02-23T05:51:48;100666.47;;;5.12;100.00
8705;BME280;4389;41.932;25.904;2023-02-23T05:54:15;100676.47;;;5.19;100.00
8705;BME280;4389;41.932;25.904;2023-02-23T05:56:42;100669.06;;;5.26;100.00
8705;BME280;4389;41.932;25.904;2023-02-23T05:59:09;100684.00;;;5.11;100.00
8705;BME280;4389;41.932;25.904;2023-02-23T06:01:39;100671.50;;;5.15;100.00
8705;BME280;4389;41.932;25.904;2023-02-23T06:04:06;100683.47;;;5.33;100.00
8705;BME280;4389;41.932;25.904;2023-02-23T06:06:32;100690.56;;;5.45;100.00
8705;BME280;4389;41.932;25.904;2023-02-23T06:09:00;100699.41;;;5.30;100.00
8705;BME280;4389;41.932;25.904;2023-02-23T06:11:27;100694.25;;;5.28;100.00
8705;BME280;4389;41.932;25.904;2023-02-23T06:13:56;100703.34;;;5.23;100.00
8705;BME280;4389;41.932;25.904;2023-02-23T06:16:25;100695.28;;;5.26;100.00
8705;BME280;4389;41.932;25.904;2023-02-23T06:18:53;100705.94;;;5.37;100.00
8705;BME280;4389;41.932;25.904;2023-02-23T06:21:20;100707.38;;;5.55;100.00
8705;BME280;4389;41.932;25.904;2023-02-23T06:23:47;100707.59;;;5.52;100.00
8705;BME280;4389;41.932;25.904;2023-02-23T06:26:14;100713.09;;;5.61;100.00
8705;BME280;4389;41.932;25.904;2023-02-23T06:28:41;100712.41;;;5.72;100.00
8705;BME280;4389;41.932;25.904;2023-02-23T06:31:08;100713.19;;;5.60;100.00
8705;BME280;4389;41.932;25.904;2023-02-23T06:33:34;100712.03;;;5.64;100.00
8705;BME280;4389;41.932;25.904;2023-02-23T06:36:03;100717.47;;;5.61;100.00
8705;BME280;4389;41.932;25.904;2023-02-23T06:38:30;100720.06;;;5.75;100.00
8705;BME280;4389;41.932;25.904;2023-02-23T06:40:57;100723.59;;;5.61;100.00
8705;BME280;4389;41.932;25.904;2023-02-23T06:43:24;100725.50;;;5.72;100.00
8705;BME280;4389;41.932;25.904;2023-02-23T06:45:50;100721.72;;;5.76;100.00
8705;BME280;4389;41.932;25.904;2023-02-23T06:48:17;100719.50;;;5.96;100.00
8705;BME280;4389;41.932;25.904;2023-02-23T06:50:44;100722.03;;;5.98;100.00
8705;BME280;4389;41.932;25.904;2023-02-23T06:53:12;100725.63;;;6.09;100.00
8705;BME280;4389;41.932;25.904;2023-02-23T06:55:39;100723.97;;;6.21;100.00
8705;BME280;4389;41.932;25.904;2023-02-23T06:58:06;100723.13;;;6.08;100.00
8705;BME280;4389;41.932;25.904;2023-02-23T07:00:33;100719.00;;;6.04;100.00
8705;BME280;4389;41.932;25.904;2023-02-23T07:02:59;100717.66;;;6.11;100.00
8705;BME280;4389;41.932;25.904;2023-02-23T07:05:26;100721.84;;;6.01;100.00
8705;BME280;4389;41.932;25.904;2023-02-23T07:07:54;100730.66;;;6.00;100.00
8705;BME280;4389;41.932;25.904;2023-02-23T07:10:22;100733.88;;;5.91;100.00
8705;BME280;4389;41.932;25.904;2023-02-23T07:12:49;100733.09;;;6.03;100.00
8705;BME280;4389;41.932;25.904;2023-02-23T07:15:16;100736.72;;;6.27;100.00
8705;BME280;4389;41.932;25.904;2023-02-23T07:17:45;100741.84;;;6.16;100.00
8705;BME280;4389;41.932;25.904;2023-02-23T07:20:13;100739.34;;;6.27;100.00
8705;BME280;4389;41.932;25.904;2023-02-23T07:22:40;100744.19;;;6.33;100.00
8705;BME280;4389;41.932;25.904;2023-02-23T07:25:07;100743.13;;;6.23;100.00
8705;BME280;4389;41.932;25.904;2023-02-23T07:27:36;100751.75;;;6.50;100.00
8705;BME280;4389;41.932;25.904;2023-02-23T07:30:04;100753.88;;;6.57;100.00
8705;BME280;4389;41.932;25.904;2023-02-23T07:32:31;100753.88;;;6.70;100.00
8705;BME280;4389;41.932;25.904;2023-02-23T07:34:58;100756.19;;;6.74;100.00
8705;BME280;4389;41.932;25.904;2023-02-23T07:37:25;100754.75;;;6.58;100.00
8705;BME280;4389;41.932;25.904;2023-02-23T07:39:52;100750.22;;;6.72;100.00
8705;BME280;4389;41.932;25.904;2023-02-23T07:42:19;100759.38;;;6.67;100.00
8705;BME280;4389;41.932;25.904;2023-02-23T07:44:47;100754.53;;;6.61;100.00
8705;BME280;4389;41.932;25.904;2023-02-23T07:47:14;100758.09;;;6.60;100.00
8705;BME280;4389;41.932;25.904;2023-02-23T07:49:41;100758.28;;;6.57;100.00
8705;BME280;4389;41.932;25.904;2023-02-23T07:52:08;100757.69;;;6.66;100.00
8705;BME280;4389;41.932;25.904;2023-02-23T07:54:34;100758.09;;;6.85;100.00
8705;BME280;4389;41.932;25.904;2023-02-23T07:57:01;100766.28;;;6.80;100.00
8705;BME280;4389;41.932;25.904;2023-02-23T07:59:28;100769.66;;;7.07;100.00
8705;BME280;4389;41.932;25.904;2023-02-23T08:01:57;100762.53;;;6.84;100.00
8705;BME280;4389;41.932;25.904;2023-02-23T08:04:26;100772.06;;;6.98;100.00
8705;BME280;4389;41.932;25.904;2023-02-23T08:06:53;100762.09;;;6.90;100.00
8705;BME280;4389;41.932;25.904;2023-02-23T08:09:20;100768.09;;;6.92;100.00
8705;BME280;4389;41.932;25.904;2023-02-23T08:11:47;100770.59;;;7.19;100.00
8705;BME280;4389;41.932;25.904;2023-02-23T08:14:14;100767.75;;;7.09;100.00
8705;BME280;4389;41.932;25.904;2023-02-23T08:16:41;100774.28;;;7.16;100.00
8705;BME280;4389;41.932;25.904;2023-02-23T08:19:09;100776.16;;;7.27;100.00
8705;BME280;4389;41.932;25.904;2023-02-23T08:21:36;100768.78;;;7.32;100.00
8705;BME280;4389;41.932;25.904;2023-02-23T08:24:03;100772.78;;;7.25;100.00
8705;BME280;4389;41.932;25.904;2023-02-23T08:26:30;100776.91;;;7.29;100.00
8705;BME280;4389;41.932;25.904;2023-02-23T08:28:57;100781.22;;;7.30;100.00
8705;BME280;4389;41.932;25.904;2023-02-23T08:31:24;100779.69;;;7.51;100.00
8705;BME280;4389;41.932;25.904;2023-02-23T08:33:52;100785.16;;;7.48;100.00
8705;BME280;4389;41.932;25.904;2023-02-23T08:36:20;100789.94;;;7.43;100.00
8705;BME280;4389;41.932;25.904;2023-02-23T08:38:48;100791.72;;;7.42;100.00
8705;BME280;4389;41.932;25.904;2023-02-23T08:41:15;100789.19;;;7.41;100.00
8705;BME280;4389;41.932;25.904;2023-02-23T08:43:42;100784.06;;;7.63;100.00
8705;BME280;4389;41.932;25.904;2023-02-23T08:46:09;100784.88;;;7.76;100.00
8705;BME280;4389;41.932;25.904;2023-02-23T08:48:36;100794.72;;;7.85;100.00
8705;BME280;4389;41.932;25.904;2023-02-23T08:51:05;100792.19;;;7.96;100.00
8705;BME280;4389;41.932;25.904;2023-02-23T08:53:34;100785.50;;;8.03;100.00
8705;BME280;4389;41.932;25.904;2023-02-23T08:56:03;100788.78;;;8.30;100.00
8705;BME280;4389;41.932;25.904;2023-02-23T08:58:30;100790.47;;;8.42;98.85
8705;BME280;4389;41.932;25.904;2023-02-23T09:00:58;100795.88;;;8.17;99.14
8705;BME280;4389;41.932;25.904;2023-02-23T09:03:26;100789.13;;;8.13;99.59
8705;BME280;4389;41.932;25.904;2023-02-23T09:05:55;100795.22;;;8.26;99.33
8705;BME280;4389;41.932;25.904;2023-02-23T09:08:23;100789.88;;;8.15;99.10
8705;BME280;4389;41.932;25.904;2023-02-23T09:10:51;100790.34;;;8.32;99.80
8705;BME280;4389;41.932;25.904;2023-02-23T09:13:18;100794.63;;;8.57;98.41
8705;BME280;4389;41.932;25.904;2023-02-23T09:15:45;100789.81;;;8.51;97.67
8705;BME280;4389;41.932;25.904;2023-02-23T09:18:12;100796.75;;;8.52;97.44
8705;BME280;4389;41.932;25.904;2023-02-23T09:20:40;100795.09;;;8.51;97.55
8705;BME280;4389;41.932;25.904;2023-02-23T09:23:07;100796.72;;;8.75;97.58
8705;BME280;4389;41.932;25.904;2023-02-23T09:25:38;100799.06;;;9.34;95.78
8705;BME280;4389;41.932;25.904;2023-02-23T09:28:10;100809.09;;;9.62;93.78
8705;BME280;4389;41.932;25.904;2023-02-23T09:30:38;100793.47;;;9.92;91.70
8705;BME280;4389;41.932;25.904;2023-02-23T09:33:05;100796.19;;;10.13;90.21
8705;BME280;4389;41.932;25.904;2023-02-23T09:35:33;100798.06;;;10.53;88.60
8705;BME280;4389;41.932;25.904;2023-02-23T09:38:01;100793.94;;;10.60;87.67
8705;BME280;4389;41.932;25.904;2023-02-23T09:40:34;100793.50;;;10.76;87.97
8705;BME280;4389;41.932;25.904;2023-02-23T09:43:12;100792.25;;;10.59;87.32
8705;BME280;4389;41.932;25.904;2023-02-23T09:45:42;100794.19;;;10.57;86.74
8705;BME280;4389;41.932;25.904;2023-02-23T09:48:14;100784.47;;;10.26;89.14
8705;BME280;4389;41.932;25.904;2023-02-23T09:50:45;100788.50;;;10.82;88.52
8705;BME280;4389;41.932;25.904;2023-02-23T09:53:31;100779.63;;;10.31;88.38
8705;BME280;4389;41.932;25.904;2023-02-23T09:56:03;100786.75;;;10.31;90.08
8705;BME280;4389;41.932;25.904;2023-02-23T09:58:33;100777.63;;;10.55;89.30
8705;BME280;4389;41.932;25.904;2023-02-23T10:04:19;100770.03;;;11.12;86.65
8705;BME280;4389;41.932;25.904;2023-02-23T10:06:50;100771.69;;;11.43;85.96
8705;BME280;4389;41.932;25.904;2023-02-23T10:09:23;100775.75;;;11.47;85.26
8705;BME280;4389;41.932;25.904;2023-02-23T10:11:57;100767.78;;;11.17;85.93
8705;BME280;4389;41.932;25.904;2023-02-23T10:14:44;100769.19;;;11.51;86.28
8705;BME280;4389;41.932;25.904;2023-02-23T10:17:27;100768.19;;;11.13;85.64
8705;BME280;4389;41.932;25.904;2023-02-23T10:19:59;100764.09;;;11.59;85.63
8705;BME280;4389;41.932;25.904;2023-02-23T10:22:33;100762.06;;;11.82;84.79
8705;BME280;4389;41.932;25.904;2023-02-23T10:25:05;100762.41;;;11.58;83.90
8705;BME280;4389;41.932;25.904;2023-02-23T10:27:39;100758.25;;;11.65;85.19
8705;BME280;4389;41.932;25.904;2023-02-23T10:30:16;100755.81;;;12.49;83.56
8705;BME280;4389;41.932;25.904;2023-02-23T10:32:49;100753.84;;;12.13;82.06
8705;BME280;4389;41.932;25.904;2023-02-23T10:35:19;100756.91;;;12.56;82.12
8705;BME280;4389;41.932;25.904;2023-02-23T10:37:47;100753.63;;;12.81;80.68
8705;BME280;4389;41.932;25.904;2023-02-23T10:40:16;100753.47;;;12.92;80.53
8705;BME280;4389;41.932;25.904;2023-02-23T10:42:45;100748.16;;;13.11;79.43
8705;BME280;4389;41.932;25.904;2023-02-23T10:45:14;100747.09;;;12.95;79.86
8705;BME280;4389;41.932;25.904;2023-02-23T10:47:44;100746.84;;;12.69;80.56
8705;BME280;4389;41.932;25.904;2023-02-23T10:50:13;100752.75;;;13.09;79.76
8705;BME280;4389;41.932;25.904;2023-02-23T10:52:42;100744.13;;;12.88;80.07
8705;BME280;4389;41.932;25.904;2023-02-23T10:55:21;100738.56;;;12.82;80.80
8705;BME280;4389;41.932;25.904;2023-02-23T10:57:50;100743.03;;;13.27;79.39
8705;BME280;4389;41.932;25.904;2023-02-23T11:00:29;100740.19;;;13.11;80.46
8705;BME280;4389;41.932;25.904;2023-02-23T11:02:59;100732.91;;;13.40;78.77
8705;BME280;4389;41.932;25.904;2023-02-23T11:05:30;100737.22;;;13.14;80.25
8705;BME280;4389;41.932;25.904;2023-02-23T11:08:26;100733.97;;;13.20;79.90
8705;BME280;4389;41.932;25.904;2023-02-23T11:11:16;100725.53;;;12.88;80.63
8705;BME280;4389;41.932;25.904;2023-02-23T11:13:46;100725.03;;;12.66;82.04
8705;BME280;4389;41.932;25.904;2023-02-23T11:16:15;100721.75;;;13.00;81.96
8705;BME280;4389;41.932;25.904;2023-02-23T11:18:50;100726.19;;;13.09;80.69
8705;BME280;4389;41.932;25.904;2023-02-23T11:21:22;100718.00;;;12.84;81.17
8705;BME280;4389;41.932;25.904;2023-02-23T11:23:51;100716.56;;;12.99;80.83
8705;BME280;4389;41.932;25.904;2023-02-23T11:26:32;100716.06;;;13.22;80.57
8705;BME280;4389;41.932;25.904;2023-02-23T11:29:03;100713.91;;;12.89;81.51
8705;BME280;4389;41.932;25.904;2023-02-23T11:31:39;100699.63;;;13.36;80.04
8705;BME280;4389;41.932;25.904;2023-02-23T11:34:19;100709.44;;;13.36;79.17
8705;BME280;4389;41.932;25.904;2023-02-23T11:36:57;100706.13;;;13.24;79.35
8705;BME280;4389;41.932;25.904;2023-02-23T11:39:24;100702.44;;;13.35;79.26
8705;BME280;4389;41.932;25.904;2023-02-23T11:42:12;100699.94;;;13.33;79.37
8705;BME280;4389;41.932;25.904;2023-02-23T11:44:39;100702.59;;;13.33;78.94
8705;BME280;4389;41.932;25.904;2023-02-23T11:47:15;100706.13;;;13.24;79.62
8705;BME280;4389;41.932;25.904;2023-02-23T11:49:45;100696.97;;;13.36;79.66
8705;BME280;4389;41.932;25.904;2023-02-23T11:52:18;100706.69;;;13.45;79.07
8705;BME280;4389;41.932;25.904;2023-02-23T11:54:51;100698.72;;;13.45;78.89
8705;BME280;4389;41.932;25.904;2023-02-23T11:57:20;100699.03;;;13.69;78.29
8705;BME280;4389;41.932;25.904;2023-02-23T11:59:49;100698.19;;;13.86;77.41
8705;BME280;4389;41.932;25.904;2023-02-23T12:02:21;100701.16;;;13.83;77.84
8705;BME280;4389;41.932;25.904;2023-02-23T12:04:51;100707.47;;;13.82;77.23
8705;BME280;4389;41.932;25.904;2023-02-23T12:07:28;100698.22;;;13.59;77.93
8705;BME280;4389;41.932;25.904;2023-02-23T12:10:04;100701.38;;;13.89;77.98
8705;BME280;4389;41.932;25.904;2023-02-23T12:12:41;100701.97;;;14.01;76.94
8705;BME280;4389;41.932;25.904;2023-02-23T12:15:16;100699.72;;;14.06;77.33
8705;BME280;4389;41.932;25.904;2023-02-23T12:17:49;100692.56;;;14.24;76.11
8705;BME280;4389;41.932;25.904;2023-02-23T12:20:21;100689.47;;;13.93;77.54
8705;BME280;4389;41.932;25.904;2023-02-23T12:22:54;100697.72;;;14.08;76.76
8705;BME280;4389;41.932;25.904;2023-02-23T12:25:26;100690.28;;;13.94;76.41
8705;BME280;4389;41.932;25.904;2023-02-23T12:28:00;100692.72;;;14.05;77.05
8705;BME280;4389;41.932;25.904;2023-02-23T12:30:39;100697.72;;;14.08;76.85
8705;BME280;4389;41.932;25.904;2023-02-23T12:33:12;100700.44;;;14.16;76.73
8705;BME280;4389;41.932;25.904;2023-02-23T12:35:47;100689.91;;;13.89;77.69
8705;BME280;4389;41.932;25.904;2023-02-23T12:38:21;100692.88;;;13.86;77.39
8705;BME280;4389;41.932;25.904;2023-02-23T12:40:56;100692.09;;;13.76;78.32
8705;BME280;4389;41.932;25.904;2023-02-23T12:43:29;100703.13;;;13.81;78.07
8705;BME280;4389;41.932;25.904;2023-02-23T12:46:05;100700.63;;;13.97;76.51
8705;BME280;4389;41.932;25.904;2023-02-23T12:48:45;100696.19;;;13.88;77.60
8705;BME280;4389;41.932;25.904;2023-02-23T12:51:20;100703.38;;;14.05;76.53
8705;BME280;4389;41.932;25.904;2023-02-23T12:53:50;100709.44;;;14.15;75.99
8705;BME280;4389;41.932;25.904;2023-02-23T12:56:32;100707.22;;;14.10;76.33
8705;BME280;4389;41.932;25.904;2023-02-23T12:59:16;100700.88;;;14.21;75.62
8705;BME280;4389;41.932;25.904;2023-02-23T13:01:52;100701.53;;;14.05;76.21
8705;BME280;4389;41.932;25.904;2023-02-23T13:04:38;100704.09;;;14.15;75.79
8705;BME280;4389;41.932;25.904;2023-02-23T13:07:13;100696.19;;;14.05;76.37
8705;BME280;4389;41.932;25.904;2023-02-23T13:09:54;100697.88;;;14.24;75.92
8705;BME280;4389;41.932;25.904;2023-02-23T13:12:37;100701.09;;;14.27;74.82
8705;BME280;4389;41.932;25.904;2023-02-23T13:15:29;100697.59;;;14.27;75.07
8705;BME280;4389;41.932;25.904;2023-02-23T13:18:04;100701.38;;;14.42;74.48
8705;BME280;4389;41.932;25.904;2023-02-23T13:20:39;100696.09;;;14.50;74.81
8705;BME280;4389;41.932;25.904;2023-02-23T13:23:14;100701.38;;;14.42;74.89
8705;BME280;4389;41.932;25.904;2023-02-23T13:25:49;100697.28;;;14.30;74.78
8705;BME280;4389;41.932;25.904;2023-02-23T13:28:30;100697.53;;;14.19;75.99
8705;BME280;4389;41.932;25.904;2023-02-23T13:30:59;100698.66;;;13.99;76.60
8705;BME280;4389;41.932;25.904;2023-02-23T13:33:27;100694.19;;;13.99;76.25
8705;BME280;4389;41.932;25.904;2023-02-23T13:36:00;100695.97;;;13.81;77.54